Time;durP1;ratioP1;P1;durP2;ratioP2;P2;SDS_P1;SDS_P2;PMS_P1;PMS_P2;Temp;Humidity;BMP_temperature;BMP_pressure;BME280_temperature;BME280_humidity;BME280_pressure;Samples;Min_cycle;Max_cycle;Signal;HPM_P1;HPM_P2
2022/01/19 00:00:10;;;;;;;73.45;17.77;;;;;;;3.18;100.00;103017.47;4971186;28;20594;-76
2022/01/19 00:02:36;;;;;;;68.97;17.75;;;;;;;3.05;100.00;102996.84;4993180;28;20101;-74
2022/01/19 00:05:02;;;;;;;98.32;17.17;;;;;;;2.92;100.00;102969.28;4964675;28;20073;-74
2022/01/19 00:07:28;;;;;;;76.85;18.80;;;;;;;2.80;100.00;102987.78;5001150;28;20056;-74
2022/01/19 00:09:54;;;;;;;72.63;18.08;;;;;;;2.56;100.00;102957.81;5021408;28;20110;-74
2022/01/19 00:12:20;;;;;;;63.83;18.10;;;;;;;2.66;100.00;102961.97;5002943;28;20105;-75
2022/01/19 00:14:45;;;;;;;81.85;19.08;;;;;;;2.44;100.00;102961.50;4999358;28;20167;-74
2022/01/19 00:17:11;;;;;;;91.72;18.75;;;;;;;2.43;100.00;102947.59;5016572;28;20030;-73
2022/01/19 00:19:37;;;;;;;95.75;19.33;;;;;;;2.52;100.00;102946.56;4984152;28;20049;-74
2022/01/19 00:22:03;;;;;;;75.25;16.88;;;;;;;2.42;100.00;102971.09;5019077;28;20034;-73
2022/01/19 00:24:28;;;;;;;103.43;18.33;;;;;;;2.45;100.00;102963.19;4984007;28;20049;-75
2022/01/19 00:26:55;;;;;;;77.57;19.17;;;;;;;2.48;100.00;102931.88;4987138;28;20032;-74
2022/01/19 00:29:20;;;;;;;93.57;18.83;;;;;;;2.36;100.00;102912.06;4999944;28;20505;-73
2022/01/19 00:31:46;;;;;;;105.57;19.25;;;;;;;2.08;100.00;102916.94;5002537;28;20033;-75
2022/01/19 00:34:12;;;;;;;83.82;20.33;;;;;;;2.36;100.00;102916.44;5001576;28;20119;-73
2022/01/19 00:36:37;;;;;;;89.55;20.02;;;;;;;2.22;100.00;102878.44;4999760;28;20053;-74
2022/01/19 00:39:03;;;;;;;101.00;21.38;;;;;;;2.03;100.00;102874.47;5000129;28;20086;-74
2022/01/19 00:41:29;;;;;;;91.70;22.05;;;;;;;2.24;100.00;102883.63;5000686;28;20026;-74
2022/01/19 00:43:55;;;;;;;84.72;19.77;;;;;;;2.10;100.00;102876.06;5017322;28;20542;-75
2022/01/19 00:46:20;;;;;;;105.60;22.67;;;;;;;2.07;100.00;102860.50;5018387;28;20026;-74
2022/01/19 00:48:46;;;;;;;123.95;20.67;;;;;;;2.27;100.00;102831.44;4999479;28;20026;-74
2022/01/19 00:51:15;;;;;;;90.35;21.58;;;;;;;2.43;100.00;102851.13;5016425;28;20104;-74
2022/01/19 00:53:41;;;;;;;88.03;21.20;;;;;;;2.30;100.00;102853.09;5019039;28;20029;-74
2022/01/19 00:56:06;;;;;;;82.70;19.90;;;;;;;2.32;100.00;102852.19;5000779;28;20117;-74
2022/01/19 00:58:32;;;;;;;72.88;20.23;;;;;;;2.53;100.00;102861.38;5018181;28;20421;-74
2022/01/19 01:01:00;;;;;;;81.28;21.58;;;;;;;2.14;100.00;102845.63;5018154;28;20026;-73
2022/01/19 01:03:29;;;;;;;71.43;20.30;;;;;;;2.46;100.00;102869.31;4985564;28;20037;-75
2022/01/19 01:06:03;;;;;;;75.03;19.63;;;;;;;2.00;100.00;102851.94;4985571;28;20566;-76
2022/01/19 01:08:30;;;;;;;73.18;21.98;;;;;;;2.03;100.00;102854.47;4985739;28;20113;-76
2022/01/19 01:10:56;;;;;;;69.63;19.77;;;;;;;2.17;100.00;102843.78;5001084;28;20029;-75
2022/01/19 01:16:04;;;;;;;82.45;21.63;;;;;;;1.74;100.00;102808.09;5018447;28;20092;-73
2022/01/19 01:18:32;;;;;;;81.05;21.75;;;;;;;1.85;100.00;102836.56;4985438;28;20383;-74
2022/01/19 01:20:59;;;;;;;82.65;22.30;;;;;;;2.27;100.00;102839.25;4987634;28;20048;-74
2022/01/19 01:23:28;;;;;;;78.47;22.30;;;;;;;2.27;100.00;102837.53;5004069;28;20026;-74
2022/01/19 01:25:55;;;;;;;71.63;20.67;;;;;;;2.27;100.00;102801.03;4986008;28;20037;-73
2022/01/19 01:28:21;;;;;;;67.15;20.00;;;;;;;2.08;100.00;102804.88;5001290;28;20022;-75
2022/01/19 01:30:48;;;;;;;79.68;21.55;;;;;;;2.15;100.00;102829.06;5000595;28;20052;-76
2022/01/19 01:33:14;;;;;;;71.35;20.55;;;;;;;2.13;100.00;102820.44;5000563;28;20061;-75
2022/01/19 01:35:41;;;;;;;74.68;21.27;;;;;;;1.95;100.00;102806.84;4984521;28;20030;-75
2022/01/19 01:38:07;;;;;;;77.15;22.98;;;;;;;1.88;100.00;102793.09;5001709;28;20033;-75
2022/01/19 01:40:35;;;;;;;78.80;22.05;;;;;;;2.02;100.00;102776.31;5001670;28;20026;-75
2022/01/19 01:43:03;;;;;;;75.47;21.73;;;;;;;2.03;100.00;102775.44;4985346;28;20026;-73
2022/01/19 01:45:32;;;;;;;71.88;22.00;;;;;;;2.18;100.00;102759.50;5006276;28;20026;-74
2022/01/19 01:48:09;;;;;;;76.13;21.90;;;;;;;2.19;100.00;102755.16;4989150;28;20070;-74
2022/01/19 01:53:28;;;;;;;63.78;20.25;;;;;;;2.42;100.00;102765.94;4995074;28;20031;-73
2022/01/19 01:56:07;;;;;;;68.25;20.60;;;;;;;2.27;100.00;102768.88;4983046;23;20051;-74
2022/01/19 01:58:40;;;;;;;58.80;19.85;;;;;;;1.90;100.00;102771.34;4975694;28;20069;-74
2022/01/19 02:01:08;;;;;;;58.97;19.50;;;;;;;1.92;100.00;102759.16;4954607;28;20030;-72
2022/01/19 02:03:39;;;;;;;66.28;19.80;;;;;;;1.64;100.00;102739.69;4938954;29;20031;-74
2022/01/19 02:23:25;;;;;;;52.25;19.13;;;;;;;1.66;100.00;102730.13;5482249;23;20058;-74
2022/01/19 02:26:03;;;;;;;53.30;19.25;;;;;;;1.78;100.00;102684.75;4950829;28;20043;-75
2022/01/19 02:31:51;;;;;;;52.17;18.40;;;;;;;1.37;100.00;102662.09;4979503;28;20034;-75
2022/01/19 02:40:13;;;;;;;46.47;18.10;;;;;;;1.13;100.00;102671.19;4977251;28;20027;-73
2022/01/19 02:51:05;;;;;;;48.60;17.92;;;;;;;1.23;100.00;102595.56;4977855;28;20030;-74
2022/01/19 02:53:36;;;;;;;49.72;18.58;;;;;;;1.36;100.00;102582.28;4977849;28;20038;-74
2022/01/19 02:56:12;;;;;;;53.67;18.85;;;;;;;1.33;100.00;102596.22;4979782;28;20023;-74
2022/01/19 02:58:51;;;;;;;50.58;18.83;;;;;;;1.33;100.00;102591.00;4984360;28;20037;-74
2022/01/19 03:09:28;;;;;;;50.38;18.02;;;;;;;1.69;100.00;102566.88;4982625;28;20460;-74
2022/01/19 03:11:56;;;;;;;47.22;17.65;;;;;;;1.64;100.00;102539.19;4965917;28;20026;-74
2022/01/19 03:14:22;;;;;;;47.22;17.83;;;;;;;1.92;100.00;102569.81;4982204;28;20037;-72
2022/01/19 03:16:49;;;;;;;48.35;17.80;;;;;;;1.98;100.00;102569.69;4982783;28;20527;-74
2022/01/19 03:19:15;;;;;;;47.80;17.77;;;;;;;2.04;100.00;102569.56;4980861;28;20030;-74
2022/01/19 03:21:42;;;;;;;43.15;16.95;;;;;;;1.80;100.00;102581.38;4962823;28;20022;-74
2022/01/19 03:24:08;;;;;;;46.33;17.83;;;;;;;1.72;100.00;102587.63;4991172;28;20038;-74
2022/01/19 03:26:37;;;;;;;48.03;17.70;;;;;;;1.72;100.00;102578.06;4988389;28;20065;-74
2022/01/19 03:29:03;;;;;;;43.65;16.95;;;;;;;1.41;100.00;102581.31;4961475;28;20125;-74
2022/01/19 03:31:29;;;;;;;46.33;17.23;;;;;;;1.22;100.00;102544.38;4975682;28;20404;-75
2022/01/19 03:33:54;;;;;;;48.25;17.40;;;;;;;1.67;100.00;102593.78;4980307;28;20045;-75
2022/01/19 03:36:21;;;;;;;42.17;16.65;;;;;;;1.80;100.00;102598.75;4978887;28;20033;-74
2022/01/19 03:38:47;;;;;;;46.15;17.40;;;;;;;1.86;100.00;102599.50;4979161;28;20027;-74
2022/01/19 03:41:13;;;;;;;40.45;16.63;;;;;;;1.81;100.00;102588.28;4980220;28;20129;-74
2022/01/19 03:43:44;;;;;;;42.42;17.08;;;;;;;1.99;100.00;102599.22;4992765;28;20026;-74
2022/01/19 03:46:18;;;;;;;46.08;17.85;;;;;;;1.91;100.00;102582.88;4992612;28;20023;-74
2022/01/19 03:49:08;;;;;;;43.90;17.35;;;;;;;2.01;100.00;102597.44;4992810;28;20150;-74
2022/01/19 03:51:34;;;;;;;43.85;16.73;;;;;;;1.60;100.00;102575.75;4977495;28;20109;-74
2022/01/19 03:54:00;;;;;;;51.03;17.27;;;;;;;1.60;100.00;102592.22;4993412;28;20031;-74
2022/01/19 03:56:28;;;;;;;49.08;17.77;;;;;;;1.58;100.00;102582.72;4976333;28;20056;-74
2022/01/19 03:58:54;;;;;;;47.22;17.35;;;;;;;1.64;100.00;102580.00;4977807;28;20392;-75
2022/01/19 04:01:20;;;;;;;49.67;18.40;;;;;;;1.51;100.00;102560.31;4975861;28;20023;-73
2022/01/19 04:04:02;;;;;;;46.83;17.50;;;;;;;1.64;100.00;102556.56;4991715;28;20134;-74
2022/01/19 04:06:51;;;;;;;47.65;17.45;;;;;;;1.63;100.00;102555.69;4978086;28;20105;-73
2022/01/19 04:09:13;;;;;;;48.70;17.73;;;;;;;1.55;100.00;102568.03;4976321;28;20403;-75
2022/01/19 04:11:38;;;;;;;41.95;16.33;;;;;;;1.53;100.00;102541.16;4978265;28;20023;-73
2022/01/19 04:16:30;;;;;;;47.92;16.85;;;;;;;1.57;100.00;102557.59;4973976;28;20030;-73
2022/01/19 04:19:16;;;;;;;45.72;17.08;;;;;;;1.63;100.00;102547.00;4973791;28;20031;-73
2022/01/19 04:21:42;;;;;;;43.70;17.40;;;;;;;1.77;100.00;102547.59;4972904;28;20023;-73
2022/01/19 04:24:08;;;;;;;53.22;17.98;;;;;;;1.63;100.00;102553.06;4972435;28;20047;-72
2022/01/19 04:26:34;;;;;;;47.75;17.05;;;;;;;1.61;100.00;102543.59;4972624;28;20105;-73
2022/01/19 04:29:00;;;;;;;50.38;16.70;;;;;;;1.71;100.00;102536.44;4972230;28;20073;-74
2022/01/19 04:31:26;;;;;;;51.83;16.70;;;;;;;1.82;100.00;102526.66;4972859;28;20019;-74
2022/01/19 04:33:51;;;;;;;45.28;17.50;;;;;;;1.97;100.00;102523.66;4972180;28;20034;-73
2022/01/19 04:44:36;;;;;;;43.90;16.57;;;;;;;2.12;100.00;102487.75;4971777;28;20026;-73
2022/01/19 05:04:10;;;;;;;52.55;19.70;;;;;;;2.09;100.00;102483.47;4955594;29;20269;-73
2022/01/19 05:06:40;;;;;;;57.17;20.17;;;;;;;2.17;100.00;102481.50;4956943;29;20138;-74
2022/01/19 05:09:25;;;;;;;49.78;20.40;;;;;;;2.29;100.00;102462.97;4971703;28;20030;-75
2022/01/19 05:14:35;;;;;;;55.72;21.42;;;;;;;2.30;100.00;102471.63;4955838;29;20027;-74
2022/01/19 05:17:00;;;;;;;53.92;20.50;;;;;;;2.35;100.00;102454.13;4956049;29;20407;-74
2022/01/19 05:19:26;;;;;;;61.60;22.42;;;;;;;2.01;100.00;102426.31;4957419;29;20442;-74
2022/01/19 05:21:56;;;;;;;58.17;21.73;;;;;;;2.15;100.00;102422.50;4970123;28;20027;-74
2022/01/19 05:24:22;;;;;;;55.67;22.02;;;;;;;2.11;100.00;102424.31;4961379;28;20046;-73
2022/01/19 05:26:50;;;;;;;56.58;21.67;;;;;;;2.33;100.00;102442.03;4957349;28;20119;-72
2022/01/19 05:29:16;;;;;;;56.83;22.40;;;;;;;2.38;100.00;102438.38;4955036;29;20024;-73
2022/01/19 05:31:42;;;;;;;54.20;21.70;;;;;;;2.38;100.00;102434.94;4940154;29;20107;-73
2022/01/19 05:34:11;;;;;;;51.20;20.60;;;;;;;2.41;100.00;102421.84;4939168;29;20058;-75
2022/01/19 05:36:37;;;;;;;53.50;21.02;;;;;;;2.33;100.00;102401.16;4954881;29;20035;-73
2022/01/19 05:39:05;;;;;;;66.32;22.05;;;;;;;2.39;100.00;102392.34;4955295;28;20024;-74
2022/01/19 05:41:34;;;;;;;58.85;21.02;;;;;;;2.25;100.00;102374.47;4954726;29;20027;-76
2022/01/19 05:44:00;;;;;;;55.45;22.98;;;;;;;2.13;100.00;102367.78;4955183;29;20019;-74
2022/01/19 05:46:26;;;;;;;52.45;21.98;;;;;;;2.59;100.00;102417.84;4955406;29;20030;-74
2022/01/19 05:48:51;;;;;;;55.65;22.10;;;;;;;2.39;100.00;102372.31;4954944;29;20118;-73
2022/01/19 05:51:17;;;;;;;62.40;22.63;;;;;;;2.34;100.00;102376.81;4956364;28;20023;-75
2022/01/19 05:53:43;;;;;;;61.75;22.67;;;;;;;2.50;100.00;102383.31;4976648;28;20062;-76
2022/01/19 05:56:09;;;;;;;55.47;22.58;;;;;;;2.32;100.00;102330.81;4975873;28;20335;-79
2022/01/19 05:58:35;;;;;;;59.65;22.38;;;;;;;2.58;100.00;102379.63;4977923;28;20026;-79
2022/01/19 06:01:04;;;;;;;60.80;21.88;;;;;;;2.65;100.00;102355.09;4980472;28;20030;-78
2022/01/19 06:03:30;;;;;;;55.47;21.75;;;;;;;2.37;100.00;102349.81;4992428;28;20556;-75
2022/01/19 06:05:56;;;;;;;58.38;22.63;;;;;;;2.30;100.00;102299.59;4976177;28;20086;-77
2022/01/19 06:10:54;;;;;;;57.67;23.02;;;;;;;2.50;100.00;102333.78;4976152;28;20042;-77
2022/01/19 06:13:21;;;;;;;54.28;20.15;;;;;;;2.18;100.00;102313.81;4967539;28;20031;-79
2022/01/19 06:15:51;;;;;;;55.60;20.60;;;;;;;2.46;100.00;102339.13;4978494;28;20035;-79
2022/01/19 06:18:18;;;;;;;50.90;20.08;;;;;;;2.06;100.00;102270.69;4982203;28;20026;-82
2022/01/19 06:20:45;;;;;;;52.53;21.02;;;;;;;2.37;100.00;102313.31;4971189;28;20027;-79
2022/01/19 06:23:11;;;;;;;52.10;20.33;;;;;;;2.23;100.00;102300.66;4996444;28;20065;-80
2022/01/19 06:25:43;;;;;;;52.78;20.00;;;;;;;2.60;100.00;102333.50;4984837;28;20093;-81
2022/01/19 06:28:16;;;;;;;51.78;20.98;;;;;;;2.30;100.00;102271.75;4977531;28;20028;-79
2022/01/19 06:30:42;;;;;;;49.97;19.92;;;;;;;2.37;100.00;102293.31;4992906;28;20023;-80
2022/01/19 06:33:08;;;;;;;51.55;21.02;;;;;;;2.72;100.00;102314.88;4986301;28;20027;-80
2022/01/19 06:35:34;;;;;;;51.85;20.23;;;;;;;2.58;100.00;102275.31;4985296;28;20049;-79
2022/01/19 06:38:04;;;;;;;47.40;19.35;;;;;;;2.35;100.00;102242.94;4964599;28;20018;-79
2022/01/19 06:40:33;;;;;;;55.15;20.48;;;;;;;2.57;100.00;102269.25;4957445;28;20440;-80
2022/01/19 06:43:01;;;;;;;53.03;20.95;;;;;;;2.91;100.00;102286.50;4987886;28;20495;-80
2022/01/19 06:45:27;;;;;;;59.28;20.67;;;;;;;2.81;100.00;102282.44;4987585;28;20026;-77
2022/01/19 06:47:56;;;;;;;58.13;22.60;;;;;;;2.56;100.00;102228.41;4981509;28;20480;-74
2022/01/19 06:50:23;;;;;;;86.03;35.25;;;;;;;2.51;100.00;102227.72;4966217;28;20026;-78
2022/01/19 06:52:49;;;;;;;57.78;22.17;;;;;;;2.86;100.00;102273.59;4983048;28;20033;-79
2022/01/19 06:55:17;;;;;;;53.92;21.55;;;;;;;2.70;100.00;102226.25;4964772;28;20124;-78
2022/01/19 06:57:45;;;;;;;49.55;21.00;;;;;;;2.88;100.00;102269.19;4974615;28;20472;-78
2022/01/19 07:00:13;;;;;;;155.63;46.03;;;;;;;2.90;100.00;102254.31;4979750;28;20027;-80
2022/01/19 07:02:39;;;;;;;66.07;24.52;;;;;;;2.91;100.00;102278.66;4976095;28;20384;-79
2022/01/19 07:05:05;;;;;;;68.65;24.55;;;;;;;2.96;100.00;102278.53;5002095;28;20101;-80
2022/01/19 07:07:44;;;;;;;54.85;21.30;;;;;;;2.65;100.00;102235.94;5003178;28;20027;-79
2022/01/19 07:10:11;;;;;;;58.45;22.60;;;;;;;3.01;100.00;102261.78;5000611;28;20014;-79
2022/01/19 07:12:38;;;;;;;57.55;22.92;;;;;;;2.71;100.00;102211.44;5004293;28;20022;-82
2022/01/19 07:15:05;;;;;;;56.28;22.90;;;;;;;3.07;100.00;102272.06;4989344;28;20018;-79
2022/01/19 07:17:49;;;;;;;58.55;23.17;;;;;;;2.96;100.00;102255.88;4970160;28;20439;-80
2022/01/19 07:20:15;;;;;;;55.78;22.05;;;;;;;2.90;100.00;102262.13;4977671;28;20038;-76
2022/01/19 07:22:41;;;;;;;61.42;23.08;;;;;;;2.95;100.00;102261.97;4977425;28;20081;-77
2022/01/19 07:25:08;;;;;;;58.42;22.63;;;;;;;2.83;100.00;102242.34;4971106;28;20034;-77
2022/01/19 07:27:36;;;;;;;58.42;23.02;;;;;;;2.66;100.00;102216.81;4976329;28;20066;-75
2022/01/19 07:30:04;;;;;;;65.00;25.70;;;;;;;2.64;100.00;102200.34;4978449;28;20026;-74
2022/01/19 07:32:36;;;;;;;96.50;38.13;;;;;;;2.98;100.00;102253.22;4977383;28;20046;-77
2022/01/19 07:35:04;;;;;;;55.72;24.52;;;;;;;2.89;100.00;102233.50;4952139;28;20062;-74
2022/01/19 07:37:37;;;;;;;66.55;25.70;;;;;;;2.89;100.00;102218.69;4960583;28;20047;-75
2022/01/19 07:40:04;;;;;;;86.15;35.70;;;;;;;2.97;100.00;102220.19;4973229;28;20014;-78
2022/01/19 07:42:29;;;;;;;57.50;24.48;;;;;;;2.86;100.00;102194.44;4968128;28;20055;-75
2022/01/19 07:44:55;;;;;;;55.70;25.15;;;;;;;3.31;100.00;102226.00;4973680;28;20019;-75
2022/01/19 07:47:21;;;;;;;67.43;27.60;;;;;;;2.95;100.00;102190.69;4980994;28;20030;-75
2022/01/19 07:49:47;;;;;;;66.10;25.80;;;;;;;3.04;100.00;102219.09;4997251;28;20021;-76
2022/01/19 07:52:23;;;;;;;64.22;26.25;;;;;;;3.03;100.00;102196.50;4978445;28;20487;-75
2022/01/19 07:54:50;;;;;;;65.32;26.70;;;;;;;3.10;100.00;102222.34;4978893;28;20105;-80
2022/01/19 07:57:18;;;;;;;63.15;27.00;;;;;;;3.07;100.00;102219.84;4987002;28;20102;-74
2022/01/19 07:59:46;;;;;;;64.97;26.27;;;;;;;3.19;100.00;102209.91;4994362;28;20035;-76
2022/01/19 08:02:12;;;;;;;66.90;27.55;;;;;;;3.08;100.00;102198.06;4998275;28;20416;-75
2022/01/19 08:04:40;;;;;;;63.92;26.10;;;;;;;3.16;100.00;102196.94;4979496;28;20030;-76
2022/01/19 08:07:07;;;;;;;62.72;25.08;;;;;;;3.07;100.00;102198.97;4994105;28;20148;-78
2022/01/19 08:09:38;;;;;;;64.15;26.75;;;;;;;2.98;100.00;102177.56;4984026;28;20034;-77
2022/01/19 08:12:43;;;;;;;66.15;26.15;;;;;;;3.11;100.00;102184.03;4986651;28;20026;-83
2022/01/19 08:15:00;;;;;;;64.45;25.90;;;;;;;2.82;100.00;102164.16;4966159;28;20129;-76
2022/01/19 08:17:27;;;;;;;67.22;27.23;;;;;;;2.72;100.00;102133.16;4990713;28;20042;-75
2022/01/19 08:19:56;;;;;;;66.25;27.10;;;;;;;2.76;100.00;102133.91;4965502;28;20022;-77
2022/01/19 08:22:23;;;;;;;63.00;25.27;;;;;;;3.16;100.00;102181.28;4995871;28;20034;-76
2022/01/19 08:24:49;;;;;;;64.88;23.80;;;;;;;2.80;100.00;102142.47;4981611;28;20133;-75
2022/01/19 08:27:15;;;;;;;66.20;26.25;;;;;;;2.99;100.00;102143.56;4979565;28;20022;-75
2022/01/19 08:29:44;;;;;;;59.92;24.45;;;;;;;2.66;100.00;102127.28;4982327;28;20022;-74
2022/01/19 08:32:10;;;;;;;56.38;24.20;;;;;;;2.88;100.00;102141.34;4992907;28;20091;-75
2022/01/19 08:34:36;;;;;;;60.58;24.98;;;;;;;3.03;100.00;102159.97;4966278;28;20061;-76
2022/01/19 08:37:02;;;;;;;63.95;24.17;;;;;;;3.10;100.00;102145.81;4965305;28;20027;-75
2022/01/19 08:39:28;;;;;;;59.83;25.20;;;;;;;3.23;100.00;102164.53;4996475;28;20029;-74
2022/01/19 08:41:54;;;;;;;61.97;25.55;;;;;;;3.06;100.00;102172.91;4981643;28;20022;-75
2022/01/19 08:44:21;;;;;;;84.55;34.00;;;;;;;2.91;100.00;102102.09;4980636;28;20105;-73
2022/01/19 08:46:48;;;;;;;73.55;27.75;;;;;;;3.18;100.00;102145.53;4998785;28;20037;-75
2022/01/19 08:49:14;;;;;;;62.60;26.20;;;;;;;3.03;100.00;102137.34;4979574;28;20034;-75
2022/01/19 08:51:40;;;;;;;69.88;30.15;;;;;;;3.00;100.00;102116.56;4977834;28;20113;-74
2022/01/19 08:54:06;;;;;;;61.60;25.52;;;;;;;3.00;100.00;102133.97;4958806;28;20018;-72
2022/01/19 08:56:32;;;;;;;62.25;26.88;;;;;;;2.93;100.00;102102.03;4978258;28;20057;-73
2022/01/19 08:58:58;;;;;;;68.32;27.15;;;;;;;3.01;100.00;102120.03;4978469;28;20030;-74
2022/01/19 09:01:25;;;;;;;69.57;26.55;;;;;;;2.72;100.00;102083.59;4976551;28;20113;-75
2022/01/19 09:03:50;;;;;;;68.63;26.45;;;;;;;2.82;100.00;102105.00;4976610;28;20027;-73
2022/01/19 09:06:19;;;;;;;67.25;27.67;;;;;;;3.00;100.00;102121.78;4979500;28;20165;-75
2022/01/19 09:08:47;;;;;;;70.28;28.38;;;;;;;2.80;100.00;102098.13;4980652;28;20018;-79
2022/01/19 09:11:13;;;;;;;71.00;28.20;;;;;;;3.06;100.00;102113.75;4979266;28;20019;-76
2022/01/19 09:13:39;;;;;;;67.32;28.38;;;;;;;2.91;100.00;102075.16;4995291;28;20030;-75
2022/01/19 09:16:06;;;;;;;71.75;27.85;;;;;;;3.09;100.00;102098.00;4974786;28;20061;-72
2022/01/19 09:18:35;;;;;;;69.50;26.63;;;;;;;3.00;100.00;102076.56;4961606;28;20023;-72
2022/01/19 09:21:02;;;;;;;70.95;27.70;;;;;;;3.03;100.00;102076.47;4977470;28;20038;-72
2022/01/19 09:23:30;;;;;;;75.03;27.73;;;;;;;2.96;100.00;102078.44;4993235;28;20053;-72
2022/01/19 09:25:57;;;;;;;76.78;29.63;;;;;;;3.23;100.00;102071.41;4994075;28;20471;-73
2022/01/19 09:28:22;;;;;;;74.30;28.70;;;;;;;3.25;100.00;102069.59;4994646;28;20059;-73
2022/01/19 09:30:49;;;;;;;75.43;27.20;;;;;;;3.10;100.00;102075.34;4987413;28;20153;-74
2022/01/19 09:33:22;;;;;;;73.57;27.67;;;;;;;2.84;100.00;102021.44;4965484;28;20341;-74
2022/01/19 09:38:34;;;;;;;75.03;27.50;;;;;;;3.19;100.00;102080.25;4994156;28;20496;-74
2022/01/19 09:41:00;;;;;;;67.32;26.52;;;;;;;3.16;100.00;102046.44;4990409;28;20026;-73
2022/01/19 09:43:26;;;;;;;74.10;27.27;;;;;;;3.21;100.00;102052.31;4977429;28;20034;-71
2022/01/19 09:45:57;;;;;;;64.68;26.80;;;;;;;3.16;100.00;102053.38;4977213;28;20042;-72
2022/01/19 09:48:24;;;;;;;73.72;28.17;;;;;;;3.06;100.00;102071.13;4978957;28;20038;-73
2022/01/19 09:50:51;;;;;;;74.05;27.58;;;;;;;3.25;100.00;102084.41;4996388;28;20133;-73
2022/01/19 09:53:22;;;;;;;68.03;26.48;;;;;;;3.33;100.00;102090.19;4995988;28;20030;-73
2022/01/19 09:55:48;;;;;;;72.65;27.60;;;;;;;3.33;100.00;102074.53;4993188;28;20096;-73
2022/01/19 09:58:17;;;;;;;74.40;27.98;;;;;;;3.30;100.00;102067.66;4977165;28;20026;-72
2022/01/19 10:00:46;;;;;;;80.57;31.20;;;;;;;3.28;100.00;102076.44;4976300;28;20065;-74
2022/01/19 10:03:21;;;;;;;69.13;28.15;;;;;;;3.16;100.00;102080.34;4961757;28;20064;-74
2022/01/19 10:06:08;;;;;;;73.13;29.08;;;;;;;3.23;100.00;102081.00;4995951;28;20074;-75
2022/01/19 10:08:47;;;;;;;75.45;27.27;;;;;;;3.40;100.00;102073.38;4957999;28;20031;-72
2022/01/19 10:19:26;;;;;;;75.15;27.77;;;;;;;3.30;100.00;102041.56;4995713;28;20054;-75
2022/01/19 10:22:06;;;;;;;63.53;26.70;;;;;;;3.38;100.00;102059.53;4978673;28;20077;-73
2022/01/19 10:24:51;;;;;;;68.63;27.23;;;;;;;3.27;100.00;102028.63;4960611;28;20101;-77
2022/01/19 10:27:21;;;;;;;68.85;28.05;;;;;;;3.33;100.00;102059.69;4963986;28;20034;-75
2022/01/19 10:30:10;;;;;;;65.95;27.48;;;;;;;3.20;100.00;102062.81;4996114;28;20096;-75
2022/01/19 10:32:55;;;;;;;68.38;28.92;;;;;;;3.26;100.00;102047.78;4978049;28;20372;-74
2022/01/19 10:35:20;;;;;;;67.40;27.60;;;;;;;3.28;100.00;102058.19;4995635;28;20022;-72
2022/01/19 10:38:04;;;;;;;71.95;27.35;;;;;;;3.35;100.00;102049.22;4977359;28;20028;-71
2022/01/19 10:40:29;;;;;;;69.03;27.45;;;;;;;3.33;100.00;102033.59;4962466;28;20030;-73
2022/01/19 10:42:55;;;;;;;63.35;25.90;;;;;;;3.50;100.00;102029.53;4983476;28;20109;-73
2022/01/19 10:45:21;;;;;;;68.88;24.98;;;;;;;3.28;100.00;102001.59;4962420;28;20022;-73
2022/01/19 10:47:56;;;;;;;66.78;25.42;;;;;;;3.63;100.00;102012.44;4993407;28;20493;-72
2022/01/19 10:50:28;;;;;;;63.55;24.52;;;;;;;3.52;100.00;102006.78;4994469;28;20045;-72
2022/01/19 10:52:56;;;;;;;67.57;23.90;;;;;;;3.59;100.00;101997.84;4960028;28;20030;-72
2022/01/19 10:55:42;;;;;;;62.20;24.20;;;;;;;3.72;100.00;101983.38;4976795;28;20019;-73
2022/01/19 10:58:14;;;;;;;64.50;24.05;;;;;;;3.71;100.00;101989.50;4991114;28;20518;-71
2022/01/19 11:00:49;;;;;;;57.83;24.13;;;;;;;3.96;100.00;101965.88;4998033;28;20030;-74
2022/01/19 11:03:18;;;;;;;;;;;;;;;4.18;100.00;101973.69;4972990;28;20110;-73
2022/01/19 11:05:52;;;;;;;46.35;20.45;;;;;;;4.25;100.00;101952.53;5000208;28;20422;-73
2022/01/19 11:08:20;;;;;;;41.75;15.90;;;;;;;4.21;100.00;101951.78;4996454;28;20349;-73
2022/01/19 11:10:49;;;;;;;45.30;18.38;;;;;;;4.31;100.00;101958.31;4976654;28;20018;-74
2022/01/19 11:13:29;;;;;;;29.15;12.65;;;;;;;4.29;100.00;101954.06;4976620;28;20030;-74
2022/01/19 11:15:57;;;;;;;30.17;10.07;;;;;;;4.38;100.00;101951.94;4979752;28;20068;-76
2022/01/19 11:18:29;;;;;;;24.98;9.00;;;;;;;4.40;100.00;101938.78;4981827;28;20499;-76
2022/01/19 11:25:31;;;;;;;22.83;4.90;;;;;;;4.48;100.00;101920.16;4978645;28;20042;-78
2022/01/19 11:28:00;;;;;;;21.08;6.00;;;;;;;4.31;100.00;101869.41;4981174;28;20191;-77
2022/01/19 11:30:32;;;;;;;15.80;4.05;;;;;;;4.77;100.00;101900.56;4986550;28;20049;-78
2022/01/19 11:33:25;;;;;;;15.98;4.13;;;;;;;4.58;100.00;101919.66;4990159;28;20095;-77
2022/01/19 11:36:04;;;;;;;12.55;3.35;;;;;;;4.42;100.00;101904.72;4992947;28;20034;-78
2022/01/19 11:42:22;;;;;;;15.88;5.35;;;;;;;4.45;100.00;101913.28;5007684;28;20045;-79
2022/01/19 11:44:51;;;;;;;13.02;3.13;;;;;;;4.21;100.00;101881.19;4988596;28;20077;-80
2022/01/19 11:47:29;;;;;;;18.45;3.53;;;;;;;4.22;100.00;101882.88;4991112;28;20030;-77
2022/01/19 11:52:41;;;;;;;13.98;3.22;;;;;;;4.58;100.00;101856.03;5237221;23;20738;-77
2022/01/19 11:55:15;;;;;;;10.80;3.08;;;;;;;4.17;100.00;101827.34;5004783;23;20025;-78
2022/01/19 11:57:42;;;;;;;14.15;3.15;;;;;;;4.13;100.00;101797.00;4978051;28;20050;-76
2022/01/19 12:00:30;;;;;;;18.00;4.13;;;;;;;4.14;100.00;101822.25;4952332;28;20074;-80
2022/01/19 12:02:59;;;;;;;15.02;3.70;;;;;;;4.15;100.00;101822.16;4986506;28;20022;-80
2022/01/19 12:05:38;;;;;;;15.50;3.08;;;;;;;4.25;100.00;101856.63;4967467;28;20034;-76
2022/01/19 12:08:30;;;;;;;12.10;3.67;;;;;;;4.14;100.00;101851.84;4981868;28;20049;-77
2022/01/19 12:11:10;;;;;;;15.35;3.85;;;;;;;4.08;100.00;101823.34;4886609;29;20531;-75
2022/01/19 12:16:15;;;;;;;16.90;3.78;;;;;;;4.25;100.00;101827.88;4908725;29;20115;-77
2022/01/19 12:18:43;;;;;;;17.40;3.70;;;;;;;4.13;100.00;101825.78;4880469;29;20495;-78
2022/01/19 12:21:13;;;;;;;14.13;3.40;;;;;;;4.09;100.00;101795.47;4911888;29;20067;-77
2022/01/19 12:23:40;;;;;;;17.58;3.83;;;;;;;3.71;100.00;101767.47;4880167;29;20029;-77
2022/01/19 12:26:07;;;;;;;13.55;3.75;;;;;;;3.94;100.00;101797.81;5004973;23;20058;-77
2022/01/19 12:28:57;;;;;;;14.82;4.30;;;;;;;4.04;100.00;101794.81;5011688;28;20045;-77
2022/01/19 12:31:37;;;;;;;15.55;3.55;;;;;;;4.25;100.00;101799.09;5007685;28;20042;-78
2022/01/19 12:34:16;;;;;;;21.73;4.25;;;;;;;4.18;100.00;101795.06;4990865;28;20122;-80
2022/01/19 12:36:55;;;;;;;15.30;3.97;;;;;;;4.18;100.00;101797.69;5026068;23;20070;-78
2022/01/19 12:39:27;;;;;;;16.38;4.00;;;;;;;4.23;100.00;101782.63;4996490;28;20053;-79
2022/01/19 12:42:14;;;;;;;17.83;3.95;;;;;;;4.11;100.00;101759.63;4999972;28;20125;-78
2022/01/19 12:44:57;;;;;;;19.95;7.05;;;;;;;4.20;100.00;101790.59;4980687;28;20034;-78
2022/01/19 12:47:29;;;;;;;18.67;4.55;;;;;;;4.28;100.00;101779.81;5005541;28;20026;-79
2022/01/19 12:50:19;;;;;;;19.02;5.65;;;;;;;4.24;100.00;101773.00;4983680;28;20034;-79
2022/01/19 12:53:00;;;;;;;16.95;3.85;;;;;;;4.12;100.00;101756.13;5001000;28;20037;-80
2022/01/19 12:55:41;;;;;;;19.13;4.55;;;;;;;4.21;100.00;101758.31;4995025;23;20051;-82
2022/01/19 12:58:27;;;;;;;17.70;4.05;;;;;;;4.17;100.00;101735.84;4971562;28;20035;-79
2022/01/19 13:01:11;;;;;;;20.65;4.90;;;;;;;4.07;100.00;101721.50;4972377;28;20039;-81
2022/01/19 13:04:08;;;;;;;18.88;4.22;;;;;;;4.25;100.00;101759.03;4983967;28;20026;-80
2022/01/19 13:06:43;;;;;;;21.42;4.30;;;;;;;4.22;100.00;101752.16;4965578;28;20030;-80